createdAt,value
2023-05-24T00:00:00.374Z,96.20
2023-05-24T00:01:00.374Z,95.78
2023-05-24T00:02:00.331Z,95.95
2023-05-24T00:03:00.442Z,95.06
2023-05-24T00:04:00.485Z,95.33
2023-05-24T00:05:00.585Z,95.02
2023-05-24T00:06:01.080Z,95.33
2023-05-24T00:07:01.311Z,95.12
2023-05-24T00:08:00.317Z,95.02
2023-05-24T00:09:00.326Z,95.02
2023-05-24T00:10:00.263Z,95.02
2023-05-24T00:11:00.292Z,94.71
2023-05-24T00:12:00.288Z,94.71
2023-05-24T00:13:00.287Z,94.40
2023-05-24T00:14:00.266Z,94.51
2023-05-24T00:15:00.309Z,94.56
2023-05-24T00:16:00.290Z,94.15
2023-05-24T00:17:00.314Z,94.51
2023-05-24T00:18:00.460Z,94.36
2023-05-24T00:19:00.220Z,94.09
2023-05-24T00:20:00.286Z,93.95
2023-05-24T00:21:00.222Z,94.09
2023-05-24T00:22:00.190Z,94.05
2023-05-24T00:23:00.172Z,94.09
2023-05-24T00:24:00.165Z,94.40
2023-05-24T00:25:00.221Z,94.60
2023-05-24T00:26:00.181Z,94.71
2023-05-24T00:27:00.142Z,95.02
2023-05-24T00:28:00.196Z,95.02
2023-05-24T00:29:00.145Z,95.02
2023-05-24T00:30:00.629Z,94.30
2023-05-24T00:31:00.221Z,94.36
2023-05-24T00:32:00.250Z,94.56
2023-05-24T00:33:00.123Z,93.64
2023-05-24T00:34:00.111Z,93.39
2023-05-24T00:35:00.154Z,93.02
2023-05-24T00:36:00.157Z,92.57
2023-05-24T00:37:00.054Z,92.77
2023-05-24T00:38:00.101Z,92.46
2023-05-24T00:39:00.109Z,91.60
2023-05-24T00:40:00.054Z,89.85
2023-05-24T00:41:00.094Z,89.95
2023-05-24T00:42:00.047Z,88.57
2023-05-24T00:43:00.055Z,88.57
2023-05-24T00:44:00.049Z,87.96
2023-05-24T00:45:00.006Z,87.24
2023-05-24T00:46:00.035Z,86.52
2023-05-24T00:47:00.002Z,86.32
2023-05-24T00:48:00.834Z,86.38
2023-05-24T00:48:59.996Z,85.90
2023-05-24T00:50:00.015Z,86.62
2023-05-24T00:50:59.949Z,86.42
2023-05-24T00:51:59.967Z,86.72
2023-05-24T00:52:59.985Z,86.42
2023-05-24T00:53:59.935Z,86.32
2023-05-24T00:54:59.960Z,86.21
2023-05-24T00:55:59.923Z,85.80
2023-05-24T00:57:00.234Z,86.52
2023-05-24T00:57:59.898Z,85.90
2023-05-24T00:59:00.904Z,86.52
2023-05-24T00:59:59.899Z,87.04
2023-05-24T01:01:00.895Z,86.97
2023-05-24T01:02:00.732Z,87.18
2023-05-24T01:02:59.946Z,87.38
2023-05-24T01:04:00.382Z,86.87
2023-05-24T01:04:59.908Z,87.28
2023-05-24T01:05:59.840Z,86.77
2023-05-24T01:06:59.828Z,87.38
2023-05-24T01:07:59.869Z,87.07
2023-05-24T01:08:59.837Z,87.12
2023-05-24T01:09:59.885Z,87.01
2023-05-24T01:11:00.137Z,87.84
2023-05-24T01:11:59.825Z,87.32
2023-05-24T01:12:59.841Z,87.98
2023-05-24T01:14:00.775Z,88.04
2023-05-24T01:14:59.776Z,88.59
2023-05-24T01:15:59.949Z,88.39
2023-05-24T01:16:59.819Z,88.74
2023-05-24T01:17:59.795Z,88.84
2023-05-24T01:18:59.795Z,88.95
2023-05-24T01:19:59.771Z,90.01
2023-05-24T01:20:59.744Z,90.08
2023-05-24T01:21:59.913Z,89.40
2023-05-24T01:22:59.811Z,90.73
2023-05-24T01:23:59.728Z,90.47
2023-05-24T01:24:59.696Z,91.09
2023-05-24T01:25:59.706Z,90.99
2023-05-24T01:26:59.700Z,91.09
2023-05-24T01:27:59.671Z,91.19
2023-05-24T01:28:59.661Z,92.12
2023-05-24T01:29:59.679Z,92.22
2023-05-24T01:30:59.781Z,92.33
2023-05-24T01:31:59.709Z,92.37
2023-05-24T01:32:59.665Z,93.19
2023-05-24T01:33:59.651Z,93.40
2023-05-24T01:35:01.193Z,93.50
2023-05-24T01:35:59.602Z,93.75
2023-05-24T01:36:59.885Z,93.75
2023-05-24T01:37:59.608Z,93.54
2023-05-24T01:38:59.572Z,93.96
2023-05-24T01:39:59.591Z,94.06
2023-05-24T01:40:59.608Z,94.47
2023-05-24T01:42:00.586Z,95.34
2023-05-24T01:42:59.880Z,94.42
2023-05-24T01:43:59.540Z,94.21
2023-05-24T01:44:59.550Z,94.31
2023-05-24T01:45:59.527Z,94.82
2023-05-24T01:46:59.549Z,95.03
2023-05-24T01:47:59.607Z,95.24
2023-05-24T01:48:59.499Z,95.28
2023-05-24T01:50:01.244Z,95.18
2023-05-24T01:50:59.545Z,95.07
2023-05-24T01:51:59.637Z,95.59
2023-05-24T01:52:59.514Z,95.39
2023-05-24T01:53:59.498Z,95.70
2023-05-24T01:54:59.476Z,95.18
2023-05-24T01:55:59.948Z,95.28
2023-05-24T01:56:59.442Z,95.90
2023-05-24T01:57:59.449Z,95.07
2023-05-24T01:58:59.452Z,95.18
2023-05-24T01:59:59.427Z,95.43
2023-05-24T02:00:59.490Z,95.28
2023-05-24T02:01:59.451Z,94.92
2023-05-24T02:02:59.554Z,95.32
2023-05-24T02:03:59.419Z,94.92
2023-05-24T02:04:59.404Z,94.92
2023-05-24T02:06:00.237Z,95.12
2023-05-24T02:06:59.399Z,94.81
2023-05-24T02:07:59.392Z,95.27
2023-05-24T02:08:59.394Z,95.27
2023-05-24T02:09:59.359Z,96.20
2023-05-24T02:10:59.331Z,95.68
2023-05-24T02:11:59.371Z,96.09
2023-05-24T02:12:59.330Z,96.41
2023-05-24T02:13:59.374Z,96.30
2023-05-24T02:14:59.315Z,96.24
2023-05-24T02:15:59.294Z,96.92
2023-05-24T02:16:59.498Z,96.97
2023-05-24T02:17:59.320Z,97.49
2023-05-24T02:18:59.354Z,97.23
2023-05-24T02:20:00.509Z,97.44
2023-05-24T02:20:59.287Z,97.38
2023-05-24T02:21:59.247Z,97.59
2023-05-24T02:22:59.232Z,96.97
2023-05-24T02:23:59.285Z,96.86
2023-05-24T02:24:59.235Z,96.97
2023-05-24T02:25:59.244Z,96.80
2023-05-24T02:26:59.237Z,96.91
2023-05-24T02:27:59.240Z,97.32
2023-05-24T02:28:59.227Z,97.32
2023-05-24T02:30:31.688Z,97.63
2023-05-24T02:30:59.209Z,97.84
2023-05-24T02:31:59.161Z,98.15
2023-05-24T02:32:59.267Z,98.25
2023-05-24T02:34:33.196Z,98.35
2023-05-24T02:34:59.150Z,98.35
2023-05-24T02:35:59.144Z,98.35
2023-05-24T02:36:59.158Z,98.35
2023-05-24T02:37:59.161Z,97.84
2023-05-24T02:38:59.124Z,98.50
2023-05-24T02:39:59.148Z,98.50
2023-05-24T02:40:59.103Z,98.40
2023-05-24T02:41:59.119Z,98.19
2023-05-24T02:42:59.198Z,98.71
2023-05-24T02:44:00.116Z,98.92
2023-05-24T02:44:59.071Z,98.13
2023-05-24T02:45:59.067Z,98.92
2023-05-24T02:46:59.095Z,98.50
2023-05-24T02:47:59.069Z,98.71
2023-05-24T02:48:59.071Z,98.92
2023-05-24T02:49:59.016Z,98.96
2023-05-24T02:51:00.032Z,98.96
2023-05-24T02:51:59.071Z,99.07
2023-05-24T02:52:59.039Z,99.07
2023-05-24T02:53:59.003Z,99.27
2023-05-24T02:54:58.976Z,99.07
2023-05-24T02:55:58.960Z,99.27
2023-05-24T02:56:58.981Z,99.17
2023-05-24T02:57:59.006Z,99.17
2023-05-24T02:58:59.017Z,98.75
2023-05-24T02:59:58.953Z,99.07
2023-05-24T03:00:58.964Z,98.75
2023-05-24T03:01:59.019Z,99.17
2023-05-24T03:02:59.020Z,99.27
2023-05-24T03:03:58.962Z,99.27
2023-05-24T03:04:58.933Z,99.22
2023-05-24T03:05:58.911Z,98.96
2023-05-24T03:06:59.160Z,99.01
2023-05-24T03:08:00.685Z,99.43
2023-05-24T03:08:58.888Z,99.32
2023-05-24T03:09:58.880Z,99.37
2023-05-24T03:10:59.766Z,99.43
2023-05-24T03:11:58.874Z,99.26
2023-05-24T03:12:59.773Z,99.26
2023-05-24T03:13:58.896Z,99.26
2023-05-24T03:14:58.860Z,98.95
2023-05-24T03:15:59.769Z,99.78
2023-05-24T03:16:59.352Z,99.78
2023-05-24T03:17:58.869Z,99.78
2023-05-24T03:18:58.804Z,99.57
2023-05-24T03:19:58.802Z,99.68
2023-05-24T03:20:58.816Z,99.41
2023-05-24T03:21:58.789Z,99.78
2023-05-24T03:22:58.790Z,99.62
2023-05-24T03:23:58.757Z,99.62
2023-05-24T03:24:58.792Z,99.68
2023-05-24T03:25:58.738Z,99.72
2023-05-24T03:26:58.781Z,99.57
2023-05-24T03:27:58.788Z,99.82
2023-05-24T03:28:58.807Z,99.72
2023-05-24T03:29:58.776Z,99.72
2023-05-24T03:30:58.754Z,99.82
2023-05-24T03:31:58.799Z,99.62
2023-05-24T03:32:58.762Z,99.52
2023-05-24T03:33:58.675Z,99.52
2023-05-24T03:34:58.708Z,99.62
2023-05-24T03:35:58.691Z,99.62
2023-05-24T03:36:58.665Z,99.99
2023-05-24T03:37:59.296Z,99.93
2023-05-24T03:38:58.702Z,99.72
2023-05-24T03:39:58.668Z,99.93
2023-05-24T03:40:58.617Z,99.62
2023-05-24T03:41:58.635Z,99.62
2023-05-24T03:42:58.667Z,99.82
2023-05-24T03:43:58.654Z,99.41
2023-05-24T03:44:58.620Z,99.52
2023-05-24T03:45:58.610Z,99.72
2023-05-24T03:46:58.583Z,99.68
2023-05-24T04:03:05.091Z,97.22
2023-05-24T04:04:05.088Z,96.59
2023-05-24T04:05:05.023Z,96.08
2023-05-24T04:06:04.976Z,95.83
2023-05-24T04:07:05.006Z,95.10
2023-05-24T04:08:06.144Z,94.96
2023-05-24T04:09:06.102Z,94.23
2023-05-24T04:10:06.105Z,93.82
2023-05-24T04:11:06.097Z,93.73
2023-05-24T04:12:06.121Z,93.32
2023-05-24T04:13:06.112Z,92.60
2023-05-24T04:14:06.077Z,92.66
2023-05-24T04:15:06.077Z,91.85
2023-05-24T04:16:06.053Z,91.13
2023-05-24T04:17:06.143Z,90.26
2023-05-24T04:18:06.151Z,89.34
2023-05-24T04:19:06.031Z,89.03
2023-05-24T04:20:06.061Z,89.29
2023-05-24T04:21:06.035Z,88.33
2023-05-24T04:22:06.021Z,87.36
2023-05-24T04:23:06.005Z,87.22
2023-05-24T04:24:05.995Z,85.98
2023-05-24T04:25:06.019Z,85.84
2023-05-24T04:26:06.011Z,86.08
2023-05-24T04:27:05.983Z,85.53
2023-05-24T04:28:05.974Z,84.91
2023-05-24T04:29:05.953Z,85.49
2023-05-24T04:30:05.974Z,84.50
2023-05-24T04:31:06.021Z,84.67
2023-05-24T04:32:05.921Z,84.53
2023-05-24T04:33:06.037Z,84.01
2023-05-24T04:34:05.924Z,82.91
2023-05-24T04:35:05.980Z,83.12
2023-05-24T04:36:05.952Z,82.77
2023-05-24T04:37:05.908Z,81.64
2023-05-24T04:38:05.944Z,81.54
2023-05-24T04:39:05.931Z,82.56
2023-05-24T04:40:05.873Z,83.53
2023-05-24T04:41:05.918Z,82.84
2023-05-24T04:42:05.874Z,84.53
2023-05-24T04:43:05.839Z,84.47
2023-05-24T04:44:05.868Z,85.22
2023-05-24T04:45:05.823Z,86.77
2023-05-24T04:46:06.870Z,87.42
2023-05-24T04:47:05.883Z,87.22
2023-05-24T04:48:05.836Z,87.84
2023-05-24T04:49:05.995Z,88.39
2023-05-24T04:50:05.814Z,88.90
2023-05-24T04:51:05.785Z,88.66
2023-05-24T04:52:05.806Z,89.28
2023-05-24T04:53:05.795Z,89.48
2023-05-24T04:54:05.764Z,88.86
2023-05-24T04:55:05.769Z,89.22
2023-05-24T04:56:05.778Z,89.38
2023-05-24T04:57:05.752Z,89.52
2023-05-24T04:58:05.780Z,89.17
2023-05-24T04:59:05.803Z,89.48
2023-05-24T05:00:05.750Z,89.13
2023-05-24T05:01:05.804Z,89.03
2023-05-24T05:02:05.889Z,88.31
2023-05-24T05:03:05.851Z,88.62
2023-05-24T05:04:06.787Z,88.92
2023-05-24T05:05:05.715Z,88.82
2023-05-24T05:06:05.673Z,88.31
2023-05-24T05:07:05.682Z,88.72
2023-05-24T05:08:05.684Z,87.79
2023-05-24T05:09:05.651Z,87.79
2023-05-24T05:10:05.675Z,87.07
2023-05-24T05:11:05.658Z,87.38
2023-05-24T05:12:05.613Z,88.00
2023-05-24T05:13:05.638Z,88.00
2023-05-24T05:14:05.663Z,88.00
2023-05-24T05:15:05.619Z,88.20
2023-05-24T05:16:05.671Z,88.10
2023-05-24T05:17:06.200Z,88.68
2023-05-24T05:18:05.667Z,87.96
2023-05-24T05:19:05.621Z,87.69
2023-05-24T05:20:05.723Z,88.62
2023-05-24T05:21:05.579Z,87.96
2023-05-24T05:22:38.141Z,88.31
2023-05-24T05:23:05.544Z,87.85
2023-05-24T05:24:05.566Z,88.06
2023-05-24T05:25:39.206Z,88.02
2023-05-24T05:26:05.520Z,86.79
2023-05-24T05:27:05.540Z,85.97
2023-05-24T05:28:05.508Z,85.97
2023-05-24T05:29:05.510Z,86.89
2023-05-24T05:30:05.477Z,86.17
2023-05-24T05:31:05.482Z,85.86
2023-05-24T05:32:05.508Z,86.48
2023-05-24T05:33:05.515Z,86.99
2023-05-24T05:34:05.454Z,87.40
2023-05-24T05:35:05.480Z,86.85
2023-05-24T05:36:05.448Z,86.33
2023-05-24T05:37:05.435Z,85.17
2023-05-24T05:38:05.415Z,85.13
2023-05-24T05:39:05.427Z,85.33
2023-05-24T05:40:05.395Z,83.76
2023-05-24T05:41:05.440Z,83.51
2023-05-24T05:42:05.378Z,82.59
2023-05-24T05:43:05.379Z,82.55
2023-05-24T05:44:05.379Z,81.46
2023-05-24T05:45:05.378Z,82.35
2023-05-24T05:46:05.361Z,80.60
2023-05-24T05:47:05.343Z,80.46
2023-05-24T05:48:05.505Z,80.46
2023-05-24T05:49:05.314Z,80.67
2023-05-24T05:50:05.302Z,80.91
2023-05-24T05:51:06.334Z,81.67
2023-05-24T05:52:05.306Z,83.07
2023-05-24T05:53:05.362Z,82.97
2023-05-24T05:54:05.287Z,84.00
2023-05-24T05:55:05.289Z,83.22
2023-05-24T05:56:05.304Z,83.94
2023-05-24T05:57:05.269Z,84.18
2023-05-24T05:58:05.283Z,84.90
2023-05-24T05:59:05.282Z,85.68
2023-05-24T06:00:05.308Z,85.58
2023-05-24T06:01:05.237Z,85.54
2023-05-24T06:02:05.261Z,82.87
2023-05-24T06:03:05.273Z,82.97
2023-05-24T06:04:05.328Z,83.49
2023-05-24T06:05:05.233Z,81.95
2023-05-24T06:06:05.188Z,82.87
2023-05-24T06:07:05.181Z,83.49
2023-05-24T06:08:05.181Z,83.94
2023-05-24T06:09:05.174Z,84.04
2023-05-24T06:10:05.183Z,83.32
2023-05-24T06:11:05.187Z,83.12
2023-05-24T06:12:05.153Z,83.94
2023-05-24T06:13:05.159Z,82.70
2023-05-24T06:14:05.128Z,82.70
2023-05-24T06:15:05.164Z,82.67
2023-05-24T06:16:05.209Z,82.67
2023-05-24T06:17:05.093Z,81.57
2023-05-24T06:18:05.135Z,81.48
2023-05-24T06:19:06.637Z,82.70
2023-05-24T06:20:06.160Z,82.81
2023-05-24T06:21:05.057Z,81.99
2023-05-24T06:22:05.070Z,83.05
2023-05-24T06:23:05.032Z,82.91
2023-05-24T06:24:05.064Z,83.12
2023-05-24T06:25:05.050Z,82.84
2023-05-24T06:26:05.075Z,83.22
2023-05-24T06:27:05.663Z,82.54
2023-05-24T06:28:06.103Z,83.26
2023-05-24T06:29:05.020Z,83.12
2023-05-24T06:30:05.074Z,83.22
2023-05-24T06:31:05.041Z,83.53
2023-05-24T06:32:05.010Z,83.12
2023-05-24T06:33:05.056Z,84.28
2023-05-24T06:34:05.041Z,84.04
2023-05-24T06:35:05.981Z,83.98
2023-05-24T06:36:05.045Z,83.22
2023-05-24T06:37:04.977Z,83.63
2023-05-24T06:38:04.923Z,83.32
2023-05-24T06:39:04.955Z,83.22
2023-05-24T06:40:04.963Z,83.12
2023-05-24T06:41:04.915Z,83.07
2023-05-24T06:42:04.910Z,82.83
2023-05-24T06:43:04.910Z,80.74
2023-05-24T06:44:04.920Z,80.95
2023-05-24T06:45:04.881Z,80.46
2023-05-24T06:46:04.899Z,79.23
2023-05-24T06:47:04.906Z,77.29
2023-05-24T06:48:04.968Z,78.11
2023-05-24T06:49:04.892Z,77.80
2023-05-24T06:50:04.885Z,79.68
2023-05-24T06:51:04.824Z,78.61
2023-05-24T06:52:04.805Z,78.24
2023-05-24T06:53:04.846Z,79.10
2023-05-24T06:54:04.871Z,79.34
2023-05-24T06:55:04.845Z,80.91
2023-05-24T06:56:04.798Z,81.84
2023-05-24T06:57:04.781Z,81.08
2023-05-24T06:58:04.766Z,80.91
2023-05-24T06:59:04.793Z,80.57
2023-05-24T07:00:05.765Z,80.77
2023-05-24T07:01:05.095Z,80.16
2023-05-24T07:02:04.969Z,80.57
2023-05-24T07:03:04.801Z,81.01
2023-05-24T07:04:04.801Z,81.08
2023-05-24T07:05:04.905Z,80.60
2023-05-24T07:06:04.721Z,80.19
2023-05-24T07:07:04.723Z,80.64
2023-05-24T07:08:19.336Z,80.33
2023-05-24T07:09:04.680Z,81.36
2023-05-24T07:10:04.708Z,81.46
2023-05-24T07:11:04.699Z,81.43
2023-05-24T07:12:06.418Z,81.01
2023-05-24T07:13:05.608Z,80.77
2023-05-24T07:14:04.666Z,80.16
2023-05-24T07:15:04.636Z,79.96
2023-05-24T07:16:04.663Z,79.64
2023-05-24T07:17:04.694Z,79.61
2023-05-24T07:18:04.651Z,79.30
2023-05-24T07:19:05.170Z,79.20
2023-05-24T07:20:05.720Z,79.27
2023-05-24T07:21:04.667Z,79.00
2023-05-24T07:22:04.634Z,79.16
2023-05-24T07:23:04.576Z,78.20
2023-05-24T07:24:04.572Z,77.53
2023-05-24T07:25:04.587Z,77.87
2023-05-24T07:26:04.599Z,78.31
2023-05-24T07:27:04.583Z,78.83
2023-05-24T07:28:04.527Z,79.30
2023-05-24T07:29:04.543Z,78.79
2023-05-24T07:30:04.538Z,79.06
2023-05-24T07:31:04.529Z,78.75
2023-05-24T07:32:04.570Z,77.90
2023-05-24T07:33:04.562Z,77.32
2023-05-24T07:34:04.522Z,77.73
2023-05-24T07:35:04.518Z,76.26
2023-05-24T07:36:04.517Z,76.98
2023-05-24T07:37:04.477Z,76.26
2023-05-24T07:38:04.476Z,76.16
2023-05-24T07:39:04.492Z,76.12
2023-05-24T07:40:05.309Z,75.92
2023-05-24T07:41:04.466Z,76.23
2023-05-24T07:42:04.471Z,75.89
2023-05-24T07:43:04.562Z,75.34
2023-05-24T07:44:04.470Z,73.43
2023-05-24T07:45:04.428Z,73.13
2023-05-24T07:46:04.481Z,73.06
2023-05-24T07:47:04.457Z,72.01
2023-05-24T07:48:04.443Z,69.73
2023-05-24T07:49:04.407Z,70.28
2023-05-24T07:50:04.416Z,70.55
2023-05-24T07:51:04.389Z,69.40
2023-05-24T07:52:04.388Z,70.01
2023-05-24T07:53:04.413Z,70.01
2023-05-24T07:54:04.355Z,69.40
2023-05-24T07:55:04.405Z,68.96
2023-05-24T07:56:04.366Z,68.55
2023-05-24T07:57:05.167Z,69.36
2023-05-24T07:58:04.344Z,69.53
2023-05-24T07:59:04.334Z,70.10
2023-05-24T08:00:04.317Z,71.29
2023-05-24T08:01:04.300Z,72.00
2023-05-24T08:02:04.306Z,71.77
2023-05-24T08:03:04.370Z,71.43
2023-05-24T08:04:04.480Z,70.61
2023-05-24T08:05:04.282Z,70.61
2023-05-24T08:06:04.264Z,71.06
2023-05-24T08:07:04.283Z,71.91
2023-05-24T08:08:04.258Z,71.50
2023-05-24T08:09:04.837Z,70.58
2023-05-24T08:10:04.261Z,71.53
2023-05-24T08:11:04.246Z,70.58
2023-05-24T08:12:04.216Z,71.50
2023-05-24T08:13:04.213Z,70.28
2023-05-24T08:14:04.261Z,71.30
2023-05-24T08:15:04.238Z,71.39
2023-05-24T08:16:04.170Z,71.39
2023-05-24T08:17:04.195Z,71.30
2023-05-24T08:18:05.190Z,71.33
2023-05-24T08:19:04.149Z,71.63
2023-05-24T08:20:04.161Z,70.78
2023-05-24T08:21:04.149Z,71.43
2023-05-24T08:22:04.145Z,70.34
2023-05-24T08:23:04.123Z,71.36
2023-05-24T08:24:06.146Z,71.50
2023-05-24T08:25:04.134Z,72.11
2023-05-24T08:26:04.135Z,71.80
2023-05-24T08:27:04.116Z,71.50
2023-05-24T08:28:04.139Z,72.38
2023-05-24T08:29:04.122Z,71.02
2023-05-24T08:30:04.106Z,69.40
2023-05-24T08:31:04.151Z,69.06
2023-05-24T08:32:04.150Z,67.74
2023-05-24T08:33:04.113Z,67.83
2023-05-24T08:34:04.138Z,68.24
2023-05-24T08:35:18.590Z,67.71
2023-05-24T08:36:06.018Z,67.40
2023-05-24T08:37:04.028Z,67.36
2023-05-24T08:38:04.032Z,66.22
2023-05-24T08:39:04.037Z,65.61
2023-05-24T08:40:04.006Z,66.38
2023-05-24T08:41:04.062Z,66.52
2023-05-24T08:42:09.858Z,67.57
2023-05-24T08:43:06.015Z,67.53
2023-05-24T08:44:03.986Z,64.96
2023-05-24T08:45:03.988Z,65.26
2023-05-24T08:46:04.036Z,66.21
2023-05-24T08:47:04.005Z,65.36
2023-05-24T08:48:04.084Z,65.64
2023-05-24T08:49:04.017Z,64.25
2023-05-24T08:50:03.937Z,64.89
2023-05-24T08:51:03.925Z,66.52
2023-05-24T08:52:03.914Z,65.67
2023-05-24T08:53:03.936Z,65.06
2023-05-24T08:54:03.899Z,65.26
2023-05-24T08:55:03.926Z,65.33
2023-05-24T08:56:03.903Z,65.20
2023-05-24T08:57:03.875Z,64.59
2023-05-24T08:58:03.875Z,64.93
2023-05-24T08:59:03.907Z,65.17
2023-05-24T09:00:05.807Z,63.01
2023-05-24T09:01:03.913Z,63.88
2023-05-24T09:02:03.987Z,64.39
2023-05-24T09:03:03.849Z,63.34
2023-05-24T09:04:03.985Z,63.24
2023-05-24T09:05:03.875Z,63.88
2023-05-24T09:06:03.893Z,64.62
2023-05-24T09:07:03.802Z,63.77
2023-05-24T09:08:03.800Z,64.41
2023-05-24T09:09:03.803Z,64.89
2023-05-24T09:10:03.844Z,65.09
2023-05-24T09:11:03.776Z,65.22
2023-05-24T09:12:03.816Z,65.43
2023-05-24T09:13:03.807Z,64.89
2023-05-24T09:14:03.746Z,63.46
2023-05-24T09:15:35.692Z,63.19
2023-05-24T09:16:03.780Z,62.24
2023-05-24T09:17:36.481Z,62.85
2023-05-24T09:18:03.762Z,63.97
2023-05-24T09:19:36.305Z,63.94
2023-05-24T09:20:03.775Z,63.40
2023-05-24T09:21:03.739Z,63.85
2023-05-24T09:22:03.678Z,62.13
2023-05-24T09:23:03.705Z,61.08
2023-05-24T09:24:03.655Z,59.78
2023-05-24T09:25:03.716Z,59.19
2023-05-24T09:26:03.673Z,59.59
2023-05-24T09:27:03.674Z,59.09
2023-05-24T09:28:03.638Z,59.49
2023-05-24T09:29:03.635Z,59.32
2023-05-24T09:30:03.677Z,59.12
2023-05-24T09:31:06.216Z,58.44
2023-05-24T09:32:04.640Z,58.84
2023-05-24T09:33:03.638Z,58.56
2023-05-24T09:34:03.600Z,59.27
2023-05-24T09:35:03.625Z,59.65
2023-05-24T09:36:03.665Z,59.48
2023-05-24T09:37:03.616Z,59.45
2023-05-24T09:38:03.574Z,59.05
2023-05-24T09:39:04.301Z,59.88
2023-05-24T09:40:03.555Z,60.35
2023-05-24T09:41:03.582Z,59.91
2023-05-24T09:42:03.605Z,60.19
2023-05-24T09:43:03.516Z,59.68
2023-05-24T09:44:03.513Z,58.87
2023-05-24T09:45:03.511Z,61.36
2023-05-24T09:46:03.515Z,61.05
2023-05-24T09:47:03.527Z,61.79
2023-05-24T09:48:03.559Z,61.90
2023-05-24T09:49:03.526Z,62.74
2023-05-24T09:50:03.564Z,63.65
2023-05-24T09:51:03.481Z,63.88
2023-05-24T09:52:03.558Z,63.34
2023-05-24T09:53:03.480Z,62.84
2023-05-24T09:54:03.539Z,62.43
2023-05-24T09:55:03.406Z,62.43
2023-05-24T09:56:03.427Z,63.01
2023-05-24T09:57:04.803Z,63.11
2023-05-24T09:58:03.409Z,62.68
2023-05-24T09:59:03.452Z,62.34
2023-05-24T10:00:03.403Z,62.07
2023-05-24T10:01:03.486Z,62.37
2023-05-24T10:02:03.386Z,62.07
2023-05-24T10:03:05.017Z,62.10
2023-05-24T10:04:05.472Z,62.81
2023-05-24T10:05:03.397Z,62.71
2023-05-24T10:06:03.371Z,62.81
2023-05-24T10:07:03.407Z,62.30
2023-05-24T10:08:03.325Z,62.71
2023-05-24T10:09:03.374Z,62.40
2023-05-24T10:10:05.992Z,63.21
2023-05-24T10:11:03.405Z,64.06
2023-05-24T10:12:03.350Z,62.94
2023-05-24T10:13:03.320Z,64.06
2023-05-24T10:14:03.339Z,63.45
2023-05-24T10:15:03.299Z,62.71
2023-05-24T10:16:03.343Z,62.68
2023-05-24T10:17:03.327Z,62.91
2023-05-24T10:18:03.294Z,62.14
2023-05-24T10:19:03.283Z,60.19
2023-05-24T10:20:03.308Z,59.55
2023-05-24T10:21:03.367Z,59.49
2023-05-24T10:22:03.220Z,58.96
2023-05-24T10:23:04.224Z,59.77
2023-05-24T10:24:03.227Z,59.52
2023-05-24T10:25:03.207Z,59.95
2023-05-24T10:26:03.229Z,60.97
2023-05-24T10:27:03.198Z,60.46
2023-05-24T10:28:03.168Z,59.92
2023-05-24T10:29:04.196Z,59.05
2023-05-24T10:30:04.575Z,60.52
2023-05-24T10:31:03.303Z,60.42
2023-05-24T10:32:03.917Z,60.31
2023-05-24T10:33:04.221Z,61.30
2023-05-24T10:34:07.903Z,61.07
2023-05-24T10:35:05.173Z,59.32
2023-05-24T10:36:03.123Z,59.90
2023-05-24T10:37:03.902Z,58.73
2023-05-24T10:38:03.140Z,58.87
2023-05-24T10:39:03.099Z,57.10
2023-05-24T10:40:03.097Z,55.69
2023-05-24T10:41:03.084Z,54.51
2023-05-24T10:42:03.084Z,55.47
2023-05-24T10:43:03.056Z,54.66
2023-05-24T10:45:04.070Z,55.22
2023-05-24T10:46:03.061Z,56.28
2023-05-24T10:47:03.941Z,56.76
2023-05-24T10:48:03.192Z,55.09
2023-05-24T10:49:17.490Z,55.32
2023-05-24T10:50:03.001Z,56.13
2023-05-24T10:51:03.988Z,56.51
2023-05-24T10:52:03.020Z,57.96
2023-05-24T10:53:03.005Z,57.37
2023-05-24T10:54:03.051Z,59.46
2023-05-24T10:55:04.271Z,60.37
2023-05-24T10:56:04.005Z,60.14
2023-05-24T10:57:02.999Z,60.58
2023-05-24T10:58:03.002Z,59.84
2023-05-24T10:59:02.996Z,60.01
2023-05-24T11:00:02.974Z,59.00
2023-05-24T11:01:02.996Z,59.94
2023-05-24T11:02:02.990Z,61.43
2023-05-24T11:03:03.005Z,59.41
2023-05-24T11:04:02.914Z,60.04
2023-05-24T11:05:02.995Z,58.75
2023-05-24T11:06:02.940Z,59.91
2023-05-24T11:07:02.910Z,58.20
2023-05-24T11:08:02.872Z,55.90
2023-05-24T11:09:02.849Z,54.51
2023-05-24T11:10:02.950Z,55.72
2023-05-24T11:11:15.039Z,54.53
2023-05-24T11:12:04.834Z,55.19
2023-05-24T11:13:02.849Z,57.04
2023-05-24T11:14:02.904Z,57.24
2023-05-24T11:15:02.861Z,56.78
2023-05-24T11:16:02.849Z,55.65
2023-05-24T11:17:02.844Z,56.12
2023-05-24T11:18:03.528Z,54.05
2023-05-24T11:19:02.808Z,55.34
2023-05-24T11:20:02.874Z,56.91
2023-05-24T11:21:02.821Z,57.01
2023-05-24T11:22:02.795Z,55.73
2023-05-24T11:23:02.805Z,56.46
2023-05-24T11:24:02.796Z,57.90
2023-05-24T11:25:02.770Z,57.90
2023-05-24T11:26:02.797Z,58.36
2023-05-24T11:27:02.799Z,58.97
2023-05-24T11:28:02.792Z,58.51
2023-05-24T11:29:05.216Z,55.60
2023-05-24T11:30:03.743Z,55.29
2023-05-24T11:31:02.749Z,56.18
2023-05-24T11:32:03.528Z,55.32
2023-05-24T11:33:02.722Z,52.42
2023-05-24T11:34:02.723Z,51.66
2023-05-24T11:35:02.709Z,52.04
2023-05-24T11:36:02.695Z,51.09
2023-05-24T11:37:02.660Z,50.03
2023-05-24T11:38:02.717Z,49.68
2023-05-24T11:39:02.624Z,49.98
2023-05-24T11:40:02.684Z,50.48
2023-05-24T11:41:02.706Z,50.56
2023-05-24T11:42:02.635Z,50.63
2023-05-24T11:43:02.742Z,52.69
2023-05-24T11:44:02.645Z,52.47
2023-05-24T11:45:02.669Z,52.49
2023-05-24T11:46:02.788Z,52.72
2023-05-24T11:47:02.605Z,51.48
2023-05-24T11:48:02.602Z,51.40
2023-05-24T11:49:02.604Z,51.08
2023-05-24T11:50:02.648Z,50.56
2023-05-24T11:51:02.563Z,50.96
2023-05-24T11:52:02.535Z,50.85
2023-05-24T11:53:02.612Z,50.40
2023-05-24T11:54:02.556Z,51.00
2023-05-24T11:55:02.573Z,50.35
2023-05-24T11:56:02.565Z,50.31
2023-05-24T11:57:02.538Z,49.68
2023-05-24T11:58:02.604Z,48.67
2023-05-24T11:59:02.529Z,48.90
2023-05-24T12:00:03.366Z,49.80
2023-05-24T12:01:02.492Z,49.87
2023-05-24T12:02:02.609Z,51.15
2023-05-24T12:03:02.596Z,50.50
2023-05-24T12:04:02.617Z,50.85
2023-05-24T12:05:03.583Z,50.68
2023-05-24T12:06:02.464Z,50.90
2023-05-24T12:07:03.577Z,51.84
2023-05-24T12:08:02.460Z,51.73
2023-05-24T12:09:02.514Z,53.00
2023-05-24T12:10:02.504Z,52.41
2023-05-24T12:11:02.449Z,52.94
2023-05-24T12:12:02.434Z,52.44
2023-05-24T12:13:02.426Z,53.14
2023-05-24T12:14:02.467Z,52.76
2023-05-24T12:15:02.505Z,53.60
2023-05-24T12:16:02.406Z,53.78
2023-05-24T12:17:02.428Z,53.83
2023-05-24T12:18:02.472Z,53.34
2023-05-24T12:19:07.134Z,52.14
2023-05-24T12:20:04.480Z,52.59
2023-05-24T12:21:02.337Z,52.72
2023-05-24T12:22:02.349Z,51.45
2023-05-24T12:23:02.593Z,51.98
2023-05-24T12:24:02.340Z,53.25
2023-05-24T12:25:02.362Z,53.07
2023-05-24T12:26:02.356Z,52.76
2023-05-24T12:27:02.362Z,53.85
2023-05-24T12:28:02.291Z,52.31
2023-05-24T12:29:03.130Z,51.98
2023-05-24T12:30:02.281Z,51.45
2023-05-24T12:31:02.380Z,52.22
2023-05-24T12:32:02.294Z,50.73
2023-05-24T12:33:02.389Z,48.44
2023-05-24T12:34:02.285Z,48.52
2023-05-24T12:35:02.247Z,49.43
2023-05-24T12:36:02.561Z,48.03
2023-05-24T12:37:02.263Z,46.62
2023-05-24T12:38:02.281Z,47.35
2023-05-24T12:39:02.245Z,47.55
2023-05-24T12:40:02.219Z,48.16
2023-05-24T12:42:04.850Z,50.60
2023-05-24T12:43:02.221Z,52.97
2023-05-24T12:44:02.327Z,52.84
2023-05-24T12:45:02.200Z,50.22
2023-05-24T12:46:02.794Z,50.16
2023-05-24T12:47:02.913Z,51.18
2023-05-24T12:48:02.198Z,51.68
2023-05-24T12:49:02.129Z,50.78
2023-05-24T12:50:02.133Z,50.98
2023-05-24T12:51:03.112Z,50.98
2023-05-24T12:52:02.291Z,51.66
2023-05-24T12:53:02.103Z,50.47
2023-05-24T12:54:02.115Z,50.78
2023-05-24T12:55:02.203Z,51.15
2023-05-24T12:56:02.065Z,50.95
2023-05-24T12:57:02.097Z,51.10
2023-05-24T12:58:02.126Z,49.87
2023-05-24T12:59:02.095Z,50.32
2023-05-24T13:00:02.032Z,51.15
2023-05-24T13:01:02.080Z,51.25
2023-05-24T13:02:02.286Z,51.18
2023-05-24T13:03:02.633Z,52.67
2023-05-24T13:04:02.012Z,52.69
2023-05-24T13:05:02.092Z,52.94
2023-05-24T13:06:02.052Z,53.25
2023-05-24T13:07:02.051Z,53.02
2023-05-24T13:08:02.065Z,52.59
2023-05-24T13:09:02.079Z,52.41